sensor_id;sensor_type;location;lat;lon;timestamp;P1;durP1;ratioP1;P2;durP2;ratioP2
62535;SDS011;63050;47.514;18.920;2023-11-21T00:03:38;9.70;;;6.30;;
62535;SDS011;63050;47.514;18.920;2023-11-21T00:08:39;8.80;;;6.00;;
62535;SDS011;63050;47.514;18.920;2023-11-21T00:13:40;7.80;;;5.80;;
62535;SDS011;63050;47.514;18.920;2023-11-21T00:18:40;10.40;;;6.60;;
62535;SDS011;63050;47.514;18.920;2023-11-21T00:23:42;7.80;;;4.80;;
62535;SDS011;63050;47.514;18.920;2023-11-21T00:28:43;9.60;;;5.50;;
62535;SDS011;63050;47.514;18.920;2023-11-21T00:33:44;6.80;;;4.90;;
62535;SDS011;63050;47.514;18.920;2023-11-21T00:38:44;6.40;;;3.70;;
62535;SDS011;63050;47.514;18.920;2023-11-21T00:43:45;7.80;;;4.30;;
62535;SDS011;63050;47.514;18.920;2023-11-21T00:48:46;6.30;;;3.90;;
62535;SDS011;63050;47.514;18.920;2023-11-21T00:53:47;6.00;;;3.40;;
62535;SDS011;63050;47.514;18.920;2023-11-21T00:58:49;5.80;;;3.00;;
62535;SDS011;63050;47.514;18.920;2023-11-21T01:03:52;5.90;;;3.50;;
62535;SDS011;63050;47.514;18.920;2023-11-21T01:08:54;5.40;;;3.60;;
62535;SDS011;63050;47.514;18.920;2023-11-21T01:13:55;7.00;;;3.20;;
62535;SDS011;63050;47.514;18.920;2023-11-21T01:18:56;5.70;;;3.90;;
62535;SDS011;63050;47.514;18.920;2023-11-21T01:23:56;5.70;;;3.20;;
62535;SDS011;63050;47.514;18.920;2023-11-21T01:28:57;8.10;;;3.00;;
62535;SDS011;63050;47.514;18.920;2023-11-21T01:33:59;3.70;;;2.50;;
62535;SDS011;63050;47.514;18.920;2023-11-21T01:39:00;3.00;;;2.20;;
62535;SDS011;63050;47.514;18.920;2023-11-21T01:44:01;4.20;;;2.70;;
62535;SDS011;63050;47.514;18.920;2023-11-21T01:49:02;3.60;;;2.80;;
62535;SDS011;63050;47.514;18.920;2023-11-21T01:59:34;4.40;;;2.40;;
62535;SDS011;63050;47.514;18.920;2023-11-21T02:04:37;5.80;;;2.80;;
62535;SDS011;63050;47.514;18.920;2023-11-21T02:09:38;4.50;;;3.20;;
62535;SDS011;63050;47.514;18.920;2023-11-21T02:14:38;7.50;;;2.70;;
62535;SDS011;63050;47.514;18.920;2023-11-21T02:19:39;4.50;;;2.50;;
62535;SDS011;63050;47.514;18.920;2023-11-21T02:24:40;5.40;;;2.80;;
62535;SDS011;63050;47.514;18.920;2023-11-21T02:29:43;5.20;;;2.80;;
62535;SDS011;63050;47.514;18.920;2023-11-21T02:34:43;4.60;;;2.50;;
62535;SDS011;63050;47.514;18.920;2023-11-21T02:39:44;6.00;;;3.20;;
62535;SDS011;63050;47.514;18.920;2023-11-21T02:44:45;4.60;;;2.50;;
62535;SDS011;63050;47.514;18.920;2023-11-21T02:49:46;4.30;;;3.40;;
62535;SDS011;63050;47.514;18.920;2023-11-21T02:54:46;6.70;;;2.50;;
62535;SDS011;63050;47.514;18.920;2023-11-21T02:59:47;4.30;;;2.80;;
62535;SDS011;63050;47.514;18.920;2023-11-21T03:04:48;5.10;;;3.30;;
62535;SDS011;63050;47.514;18.920;2023-11-21T03:09:49;5.10;;;2.60;;
62535;SDS011;63050;47.514;18.920;2023-11-21T03:14:50;4.80;;;2.50;;
62535;SDS011;63050;47.514;18.920;2023-11-21T03:19:51;4.10;;;2.40;;
62535;SDS011;63050;47.514;18.920;2023-11-21T03:24:52;6.30;;;2.40;;
62535;SDS011;63050;47.514;18.920;2023-11-21T03:29:53;9.40;;;2.90;;
62535;SDS011;63050;47.514;18.920;2023-11-21T03:35:20;6.80;;;2.60;;
62535;SDS011;63050;47.514;18.920;2023-11-21T03:40:21;7.30;;;2.90;;
62535;SDS011;63050;47.514;18.920;2023-11-21T03:45:22;4.20;;;2.30;;
62535;SDS011;63050;47.514;18.920;2023-11-21T03:50:23;4.00;;;2.50;;
62535;SDS011;63050;47.514;18.920;2023-11-21T03:55:23;3.30;;;2.00;;
62535;SDS011;63050;47.514;18.920;2023-11-21T04:00:25;3.00;;;2.20;;
62535;SDS011;63050;47.514;18.920;2023-11-21T04:05:29;4.40;;;2.30;;
62535;SDS011;63050;47.514;18.920;2023-11-21T04:10:29;5.60;;;2.50;;
62535;SDS011;63050;47.514;18.920;2023-11-21T04:15:30;4.20;;;2.50;;
62535;SDS011;63050;47.514;18.920;2023-11-21T04:20:31;6.30;;;3.30;;
62535;SDS011;63050;47.514;18.920;2023-11-21T04:25:31;5.00;;;2.60;;
62535;SDS011;63050;47.514;18.920;2023-11-21T04:30:32;3.20;;;2.60;;
62535;SDS011;63050;47.514;18.920;2023-11-21T04:35:33;4.40;;;2.60;;
62535;SDS011;63050;47.514;18.920;2023-11-21T04:40:33;4.50;;;3.00;;
62535;SDS011;63050;47.514;18.920;2023-11-21T04:45:34;6.50;;;3.20;;
62535;SDS011;63050;47.514;18.920;2023-11-21T04:50:35;5.90;;;3.80;;
62535;SDS011;63050;47.514;18.920;2023-11-21T04:55:36;7.20;;;4.00;;
62535;SDS011;63050;47.514;18.920;2023-11-21T05:00:36;8.20;;;3.30;;
62535;SDS011;63050;47.514;18.920;2023-11-21T05:05:37;6.10;;;3.80;;
62535;SDS011;63050;47.514;18.920;2023-11-21T05:10:38;6.80;;;3.90;;
62535;SDS011;63050;47.514;18.920;2023-11-21T05:15:39;5.00;;;3.30;;
62535;SDS011;63050;47.514;18.920;2023-11-21T05:20:41;5.70;;;3.50;;
62535;SDS011;63050;47.514;18.920;2023-11-21T05:25:42;5.10;;;3.20;;
62535;SDS011;63050;47.514;18.920;2023-11-21T05:30:43;6.50;;;3.90;;
62535;SDS011;63050;47.514;18.920;2023-11-21T05:35:44;7.10;;;3.20;;
62535;SDS011;63050;47.514;18.920;2023-11-21T05:40:45;7.40;;;3.50;;
62535;SDS011;63050;47.514;18.920;2023-11-21T05:45:46;9.60;;;4.10;;
62535;SDS011;63050;47.514;18.920;2023-11-21T05:50:46;9.40;;;5.50;;
62535;SDS011;63050;47.514;18.920;2023-11-21T05:55:49;19.80;;;5.80;;
62535;SDS011;63050;47.514;18.920;2023-11-21T06:00:50;8.80;;;5.40;;
62535;SDS011;63050;47.514;18.920;2023-11-21T06:05:54;9.70;;;5.80;;
62535;SDS011;63050;47.514;18.920;2023-11-21T06:10:55;13.20;;;7.30;;
62535;SDS011;63050;47.514;18.920;2023-11-21T06:15:56;14.40;;;7.10;;
62535;SDS011;63050;47.514;18.920;2023-11-21T06:20:56;12.50;;;6.60;;
62535;SDS011;63050;47.514;18.920;2023-11-21T06:25:57;9.10;;;5.60;;
62535;SDS011;63050;47.514;18.920;2023-11-21T06:30:59;10.50;;;5.30;;
62535;SDS011;63050;47.514;18.920;2023-11-21T06:36:05;9.20;;;4.40;;
62535;SDS011;63050;47.514;18.920;2023-11-21T06:41:06;15.70;;;7.40;;
62535;SDS011;63050;47.514;18.920;2023-11-21T06:46:07;20.10;;;8.90;;
62535;SDS011;63050;47.514;18.920;2023-11-21T06:51:08;18.40;;;8.20;;
62535;SDS011;63050;47.514;18.920;2023-11-21T06:56:16;14.20;;;7.30;;
62535;SDS011;63050;47.514;18.920;2023-11-21T07:01:19;12.60;;;6.50;;
62535;SDS011;63050;47.514;18.920;2023-11-21T07:06:20;13.00;;;6.10;;
62535;SDS011;63050;47.514;18.920;2023-11-21T07:11:21;11.90;;;5.40;;
62535;SDS011;63050;47.514;18.920;2023-11-21T07:16:23;11.90;;;5.50;;
62535;SDS011;63050;47.514;18.920;2023-11-21T07:21:24;9.60;;;6.00;;
62535;SDS011;63050;47.514;18.920;2023-11-21T07:26:25;10.40;;;6.50;;
62535;SDS011;63050;47.514;18.920;2023-11-21T07:31:26;14.50;;;8.80;;
62535;SDS011;63050;47.514;18.920;2023-11-21T07:36:27;19.00;;;9.60;;
62535;SDS011;63050;47.514;18.920;2023-11-21T07:41:28;21.00;;;11.00;;
62535;SDS011;63050;47.514;18.920;2023-11-21T07:46:30;15.90;;;10.20;;
62535;SDS011;63050;47.514;18.920;2023-11-21T07:51:30;13.00;;;8.60;;
62535;SDS011;63050;47.514;18.920;2023-11-21T07:56:31;9.70;;;6.50;;
62535;SDS011;63050;47.514;18.920;2023-11-21T08:01:32;11.90;;;8.30;;
62535;SDS011;63050;47.514;18.920;2023-11-21T08:06:33;10.00;;;6.70;;
62535;SDS011;63050;47.514;18.920;2023-11-21T08:11:34;14.00;;;7.10;;
62535;SDS011;63050;47.514;18.920;2023-11-21T08:16:35;22.90;;;12.70;;
62535;SDS011;63050;47.514;18.920;2023-11-21T08:21:35;21.90;;;12.90;;
62535;SDS011;63050;47.514;18.920;2023-11-21T08:26:38;22.80;;;13.80;;
62535;SDS011;63050;47.514;18.920;2023-11-21T08:31:38;18.50;;;11.80;;
62535;SDS011;63050;47.514;18.920;2023-11-21T08:36:42;18.30;;;9.70;;
62535;SDS011;63050;47.514;18.920;2023-11-21T08:41:43;16.40;;;10.00;;
62535;SDS011;63050;47.514;18.920;2023-11-21T08:46:44;15.20;;;10.10;;
62535;SDS011;63050;47.514;18.920;2023-11-21T08:51:48;12.80;;;8.10;;
62535;SDS011;63050;47.514;18.920;2023-11-21T08:56:49;13.70;;;7.00;;
62535;SDS011;63050;47.514;18.920;2023-11-21T09:01:50;9.80;;;7.20;;
62535;SDS011;63050;47.514;18.920;2023-11-21T09:06:51;11.60;;;6.80;;
62535;SDS011;63050;47.514;18.920;2023-11-21T09:11:52;9.10;;;6.10;;
62535;SDS011;63050;47.514;18.920;2023-11-21T09:16:52;10.40;;;6.50;;
62535;SDS011;63050;47.514;18.920;2023-11-21T09:21:53;11.40;;;6.60;;
62535;SDS011;63050;47.514;18.920;2023-11-21T09:26:54;10.40;;;6.30;;
62535;SDS011;63050;47.514;18.920;2023-11-21T09:31:55;11.40;;;7.00;;
62535;SDS011;63050;47.514;18.920;2023-11-21T09:36:59;13.10;;;7.60;;
62535;SDS011;63050;47.514;18.920;2023-11-21T09:42:13;15.90;;;9.70;;
62535;SDS011;63050;47.514;18.920;2023-11-21T09:47:17;11.80;;;8.60;;
62535;SDS011;63050;47.514;18.920;2023-11-21T09:52:27;14.60;;;7.70;;
62535;SDS011;63050;47.514;18.920;2023-11-21T09:57:28;11.50;;;7.20;;
62535;SDS011;63050;47.514;18.920;2023-11-21T10:02:29;10.20;;;7.60;;
62535;SDS011;63050;47.514;18.920;2023-11-21T10:07:33;7.70;;;5.00;;
62535;SDS011;63050;47.514;18.920;2023-11-21T10:12:35;8.20;;;4.80;;
62535;SDS011;63050;47.514;18.920;2023-11-21T10:17:36;7.00;;;4.80;;
62535;SDS011;63050;47.514;18.920;2023-11-21T10:22:43;6.10;;;3.20;;
62535;SDS011;63050;47.514;18.920;2023-11-21T10:27:46;7.60;;;3.70;;
62535;SDS011;63050;47.514;18.920;2023-11-21T10:32:48;4.60;;;3.00;;
62535;SDS011;63050;47.514;18.920;2023-11-21T10:37:49;6.50;;;3.40;;
62535;SDS011;63050;47.514;18.920;2023-11-21T10:43:06;7.90;;;3.90;;
62535;SDS011;63050;47.514;18.920;2023-11-21T10:48:13;8.40;;;5.70;;
62535;SDS011;63050;47.514;18.920;2023-11-21T10:53:18;10.70;;;6.90;;
62535;SDS011;63050;47.514;18.920;2023-11-21T10:58:19;10.50;;;6.10;;
62535;SDS011;63050;47.514;18.920;2023-11-21T11:03:20;7.70;;;5.60;;
62535;SDS011;63050;47.514;18.920;2023-11-21T11:08:21;11.70;;;7.00;;
62535;SDS011;63050;47.514;18.920;2023-11-21T11:13:26;10.70;;;7.60;;
62535;SDS011;63050;47.514;18.920;2023-11-21T11:18:30;14.70;;;8.40;;
62535;SDS011;63050;47.514;18.920;2023-11-21T11:28:47;8.10;;;4.50;;
62535;SDS011;63050;47.514;18.920;2023-11-21T11:39:43;6.00;;;3.50;;
62535;SDS011;63050;47.514;18.920;2023-11-21T11:50:08;8.10;;;4.10;;
62535;SDS011;63050;47.514;18.920;2023-11-21T11:55:17;8.80;;;5.00;;
62535;SDS011;63050;47.514;18.920;2023-11-21T12:00:33;8.30;;;4.50;;
62535;SDS011;63050;47.514;18.920;2023-11-21T12:05:37;12.40;;;5.30;;
62535;SDS011;63050;47.514;18.920;2023-11-21T12:10:44;8.40;;;5.90;;
62535;SDS011;63050;47.514;18.920;2023-11-21T12:15:45;10.60;;;6.80;;
62535;SDS011;63050;47.514;18.920;2023-11-21T12:20:46;13.30;;;5.30;;
62535;SDS011;63050;47.514;18.920;2023-11-21T12:25:49;7.60;;;4.40;;
62535;SDS011;63050;47.514;18.920;2023-11-21T12:30:49;9.10;;;5.60;;
62535;SDS011;63050;47.514;18.920;2023-11-21T12:35:50;11.00;;;6.10;;
62535;SDS011;63050;47.514;18.920;2023-11-21T12:40:52;6.20;;;3.30;;
62535;SDS011;63050;47.514;18.920;2023-11-21T12:46:08;5.10;;;3.30;;
62535;SDS011;63050;47.514;18.920;2023-11-21T12:51:13;11.00;;;5.60;;
62535;SDS011;63050;47.514;18.920;2023-11-21T12:56:16;7.00;;;4.20;;
62535;SDS011;63050;47.514;18.920;2023-11-21T13:01:18;8.80;;;3.40;;
62535;SDS011;63050;47.514;18.920;2023-11-21T13:06:19;7.20;;;2.70;;
62535;SDS011;63050;47.514;18.920;2023-11-21T13:11:22;6.00;;;3.10;;
62535;SDS011;63050;47.514;18.920;2023-11-21T13:16:23;4.60;;;2.50;;
62535;SDS011;63050;47.514;18.920;2023-11-21T13:21:24;5.30;;;2.40;;
62535;SDS011;63050;47.514;18.920;2023-11-21T13:26:25;4.50;;;2.90;;
62535;SDS011;63050;47.514;18.920;2023-11-21T13:31:26;6.10;;;2.00;;
62535;SDS011;63050;47.514;18.920;2023-11-21T13:36:29;3.40;;;2.10;;
62535;SDS011;63050;47.514;18.920;2023-11-21T13:41:33;4.80;;;2.00;;
62535;SDS011;63050;47.514;18.920;2023-11-21T13:46:34;6.20;;;2.50;;
62535;SDS011;63050;47.514;18.920;2023-11-21T13:51:37;4.50;;;2.10;;
62535;SDS011;63050;47.514;18.920;2023-11-21T13:56:46;4.90;;;2.80;;
62535;SDS011;63050;47.514;18.920;2023-11-21T14:01:47;5.20;;;2.30;;
62535;SDS011;63050;47.514;18.920;2023-11-21T14:06:59;8.20;;;3.00;;
62535;SDS011;63050;47.514;18.920;2023-11-21T14:12:11;6.50;;;2.70;;
62535;SDS011;63050;47.514;18.920;2023-11-21T14:17:14;9.90;;;2.80;;
62535;SDS011;63050;47.514;18.920;2023-11-21T14:22:15;8.80;;;2.30;;
62535;SDS011;63050;47.514;18.920;2023-11-21T14:27:17;14.70;;;4.10;;
62535;SDS011;63050;47.514;18.920;2023-11-21T14:32:18;13.60;;;5.10;;
62535;SDS011;63050;47.514;18.920;2023-11-21T14:37:19;20.70;;;4.30;;
62535;SDS011;63050;47.514;18.920;2023-11-21T14:42:20;13.60;;;4.20;;
62535;SDS011;63050;47.514;18.920;2023-11-21T14:47:25;12.00;;;4.50;;
62535;SDS011;63050;47.514;18.920;2023-11-21T14:52:27;12.00;;;4.40;;
62535;SDS011;63050;47.514;18.920;2023-11-21T14:57:34;11.70;;;4.00;;
62535;SDS011;63050;47.514;18.920;2023-11-21T15:02:36;9.80;;;3.50;;
62535;SDS011;63050;47.514;18.920;2023-11-21T15:07:50;14.70;;;7.00;;
62535;SDS011;63050;47.514;18.920;2023-11-21T15:12:55;17.00;;;10.30;;
62535;SDS011;63050;47.514;18.920;2023-11-21T15:17:56;29.20;;;21.10;;
62535;SDS011;63050;47.514;18.920;2023-11-21T15:22:57;20.90;;;13.40;;
62535;SDS011;63050;47.514;18.920;2023-11-21T15:27:57;13.90;;;7.80;;
62535;SDS011;63050;47.514;18.920;2023-11-21T15:32:58;9.40;;;5.80;;
62535;SDS011;63050;47.514;18.920;2023-11-21T15:37:59;8.20;;;4.90;;
62535;SDS011;63050;47.514;18.920;2023-11-21T15:43:00;11.70;;;6.80;;
62535;SDS011;63050;47.514;18.920;2023-11-21T15:48:03;10.70;;;6.70;;
62535;SDS011;63050;47.514;18.920;2023-11-21T15:53:05;11.90;;;6.40;;
62535;SDS011;63050;47.514;18.920;2023-11-21T15:58:08;11.30;;;6.10;;
62535;SDS011;63050;47.514;18.920;2023-11-21T16:03:09;12.50;;;5.50;;
62535;SDS011;63050;47.514;18.920;2023-11-21T16:08:11;14.00;;;4.90;;
62535;SDS011;63050;47.514;18.920;2023-11-21T16:13:38;9.10;;;6.00;;
62535;SDS011;63050;47.514;18.920;2023-11-21T16:18:39;14.30;;;4.90;;
62535;SDS011;63050;47.514;18.920;2023-11-21T16:23:39;11.50;;;4.30;;
62535;SDS011;63050;47.514;18.920;2023-11-21T16:28:40;9.60;;;3.80;;
62535;SDS011;63050;47.514;18.920;2023-11-21T16:33:41;11.60;;;4.20;;
62535;SDS011;63050;47.514;18.920;2023-11-21T16:38:42;19.90;;;6.90;;
62535;SDS011;63050;47.514;18.920;2023-11-21T16:43:43;23.30;;;6.90;;
62535;SDS011;63050;47.514;18.920;2023-11-21T16:48:44;18.60;;;5.40;;
62535;SDS011;63050;47.514;18.920;2023-11-21T16:53:44;12.00;;;4.40;;
62535;SDS011;63050;47.514;18.920;2023-11-21T16:58:45;14.90;;;4.60;;
62535;SDS011;63050;47.514;18.920;2023-11-21T17:03:46;10.60;;;4.90;;
62535;SDS011;63050;47.514;18.920;2023-11-21T17:08:49;14.80;;;5.10;;
62535;SDS011;63050;47.514;18.920;2023-11-21T17:13:50;19.00;;;5.90;;
62535;SDS011;63050;47.514;18.920;2023-11-21T17:18:51;6.50;;;3.90;;
62535;SDS011;63050;47.514;18.920;2023-11-21T17:23:52;15.40;;;3.60;;
62535;SDS011;63050;47.514;18.920;2023-11-21T17:28:53;8.20;;;3.30;;
62535;SDS011;63050;47.514;18.920;2023-11-21T17:33:54;10.20;;;3.40;;
62535;SDS011;63050;47.514;18.920;2023-11-21T17:38:55;6.80;;;2.40;;
62535;SDS011;63050;47.514;18.920;2023-11-21T17:43:57;8.70;;;2.90;;
62535;SDS011;63050;47.514;18.920;2023-11-21T17:48:58;12.40;;;3.40;;
62535;SDS011;63050;47.514;18.920;2023-11-21T17:53:59;5.10;;;3.30;;
62535;SDS011;63050;47.514;18.920;2023-11-21T17:59:02;4.50;;;3.00;;
62535;SDS011;63050;47.514;18.920;2023-11-21T18:04:03;8.00;;;3.10;;
62535;SDS011;63050;47.514;18.920;2023-11-21T18:09:06;4.60;;;3.10;;
62535;SDS011;63050;47.514;18.920;2023-11-21T18:14:09;5.00;;;3.10;;
62535;SDS011;63050;47.514;18.920;2023-11-21T18:19:11;8.20;;;3.50;;
62535;SDS011;63050;47.514;18.920;2023-11-21T18:24:12;4.80;;;3.20;;
62535;SDS011;63050;47.514;18.920;2023-11-21T18:29:13;9.30;;;4.10;;
62535;SDS011;63050;47.514;18.920;2023-11-21T18:34:18;10.10;;;4.00;;
62535;SDS011;63050;47.514;18.920;2023-11-21T18:39:18;9.50;;;4.00;;
62535;SDS011;63050;47.514;18.920;2023-11-21T18:44:19;11.60;;;4.70;;
62535;SDS011;63050;47.514;18.920;2023-11-21T18:49:20;21.80;;;5.50;;
62535;SDS011;63050;47.514;18.920;2023-11-21T18:54:21;13.20;;;6.40;;
62535;SDS011;63050;47.514;18.920;2023-11-21T18:59:22;12.30;;;5.80;;
62535;SDS011;63050;47.514;18.920;2023-11-21T19:04:23;16.70;;;7.00;;
62535;SDS011;63050;47.514;18.920;2023-11-21T19:09:25;15.50;;;6.90;;
62535;SDS011;63050;47.514;18.920;2023-11-21T19:14:26;10.10;;;5.70;;
62535;SDS011;63050;47.514;18.920;2023-11-21T19:19:27;9.90;;;4.30;;
62535;SDS011;63050;47.514;18.920;2023-11-21T19:24:29;13.00;;;5.50;;
62535;SDS011;63050;47.514;18.920;2023-11-21T19:29:29;8.80;;;5.10;;
62535;SDS011;63050;47.514;18.920;2023-11-21T19:34:30;10.30;;;5.90;;
62535;SDS011;63050;47.514;18.920;2023-11-21T19:39:31;16.00;;;7.20;;
62535;SDS011;63050;47.514;18.920;2023-11-21T19:44:32;13.30;;;5.90;;
62535;SDS011;63050;47.514;18.920;2023-11-21T19:49:36;12.00;;;5.50;;
62535;SDS011;63050;47.514;18.920;2023-11-21T19:54:38;18.10;;;6.30;;
62535;SDS011;63050;47.514;18.920;2023-11-21T19:59:39;11.40;;;5.30;;
62535;SDS011;63050;47.514;18.920;2023-11-21T20:04:43;10.60;;;6.20;;
62535;SDS011;63050;47.514;18.920;2023-11-21T20:09:45;8.10;;;5.30;;
62535;SDS011;63050;47.514;18.920;2023-11-21T20:14:46;13.20;;;7.40;;
62535;SDS011;63050;47.514;18.920;2023-11-21T20:19:48;14.30;;;8.30;;
62535;SDS011;63050;47.514;18.920;2023-11-21T20:24:49;12.60;;;7.20;;
62535;SDS011;63050;47.514;18.920;2023-11-21T20:29:50;11.20;;;6.80;;
62535;SDS011;63050;47.514;18.920;2023-11-21T20:34:50;11.80;;;7.20;;
62535;SDS011;63050;47.514;18.920;2023-11-21T20:39:51;11.00;;;6.30;;
62535;SDS011;63050;47.514;18.920;2023-11-21T20:44:52;8.50;;;5.90;;
62535;SDS011;63050;47.514;18.920;2023-11-21T20:49:53;9.10;;;5.80;;
62535;SDS011;63050;47.514;18.920;2023-11-21T20:54:59;7.40;;;4.90;;
62535;SDS011;63050;47.514;18.920;2023-11-21T21:00:00;9.10;;;4.80;;
62535;SDS011;63050;47.514;18.920;2023-11-21T21:05:04;11.40;;;6.00;;
62535;SDS011;63050;47.514;18.920;2023-11-21T21:10:10;10.50;;;5.80;;
62535;SDS011;63050;47.514;18.920;2023-11-21T21:15:11;7.50;;;5.30;;
62535;SDS011;63050;47.514;18.920;2023-11-21T21:20:13;9.90;;;5.30;;
62535;SDS011;63050;47.514;18.920;2023-11-21T21:25:15;9.20;;;6.10;;
62535;SDS011;63050;47.514;18.920;2023-11-21T21:30:16;8.80;;;6.00;;
62535;SDS011;63050;47.514;18.920;2023-11-21T21:35:17;10.60;;;6.20;;
62535;SDS011;63050;47.514;18.920;2023-11-21T21:40:17;9.10;;;5.90;;
62535;SDS011;63050;47.514;18.920;2023-11-21T21:45:43;10.60;;;5.30;;
62535;SDS011;63050;47.514;18.920;2023-11-21T21:50:44;11.70;;;5.70;;
62535;SDS011;63050;47.514;18.920;2023-11-21T21:55:45;7.00;;;5.20;;
62535;SDS011;63050;47.514;18.920;2023-11-21T22:00:46;8.10;;;5.20;;
62535;SDS011;63050;47.514;18.920;2023-11-21T22:05:46;7.50;;;5.10;;
62535;SDS011;63050;47.514;18.920;2023-11-21T22:10:47;10.60;;;5.80;;
62535;SDS011;63050;47.514;18.920;2023-11-21T22:15:48;10.30;;;5.10;;
62535;SDS011;63050;47.514;18.920;2023-11-21T22:20:49;7.80;;;5.30;;
62535;SDS011;63050;47.514;18.920;2023-11-21T22:25:51;8.70;;;5.00;;
62535;SDS011;63050;47.514;18.920;2023-11-21T22:30:51;6.60;;;4.50;;
62535;SDS011;63050;47.514;18.920;2023-11-21T22:35:52;10.30;;;5.70;;
62535;SDS011;63050;47.514;18.920;2023-11-21T22:40:53;8.00;;;5.10;;
62535;SDS011;63050;47.514;18.920;2023-11-21T22:45:54;7.30;;;4.10;;
62535;SDS011;63050;47.514;18.920;2023-11-21T22:50:55;9.20;;;5.20;;
62535;SDS011;63050;47.514;18.920;2023-11-21T22:55:56;6.90;;;4.40;;
62535;SDS011;63050;47.514;18.920;2023-11-21T23:00:56;9.80;;;5.20;;
62535;SDS011;63050;47.514;18.920;2023-11-21T23:05:58;8.70;;;4.70;;
62535;SDS011;63050;47.514;18.920;2023-11-21T23:10:58;6.80;;;4.20;;
62535;SDS011;63050;47.514;18.920;2023-11-21T23:15:59;8.50;;;4.10;;
62535;SDS011;63050;47.514;18.920;2023-11-21T23:21:00;6.10;;;3.90;;
62535;SDS011;63050;47.514;18.920;2023-11-21T23:26:01;6.40;;;3.60;;
62535;SDS011;63050;47.514;18.920;2023-11-21T23:31:02;5.80;;;4.10;;
62535;SDS011;63050;47.514;18.920;2023-11-21T23:36:03;6.90;;;4.20;;
62535;SDS011;63050;47.514;18.920;2023-11-21T23:41:04;7.10;;;4.90;;
62535;SDS011;63050;47.514;18.920;2023-11-21T23:46:04;5.10;;;3.70;;
62535;SDS011;63050;47.514;18.920;2023-11-21T23:51:05;4.70;;;3.50;;
62535;SDS011;63050;47.514;18.920;2023-11-21T23:56:06;6.60;;;3.80;;
